SKRGSKPE

Guest
Details From SKRG - JOSE MARIA CORDOVA
To SKPE - MATECANA
Flight Number -
Tags generated
Created
Modified
Stats Distance 84 nm / 155 km
Max Altitude 4,200 ft / 1,280 m
Waypoints 3
Social Downloads 1
Likes 0
Share

Download

Looking for another format? Having issues loading an existing format? Contact us
Advertisement - Login to hide

Notes

Basic altitude profile: - Ascent Rate: 2500ft/min - Ascent Speed: 250kts - Cruise Altitude: 29000ft - Cruise Speed: 315kts - Descent Rate: 1500ft/min - Descent Speed: 250kts Options: - Use NATs: yes - Use PACOTS: yes - Use low airways: yes - Use high airways: yes

Route

SKRG MATRO SKPE

ID Type Via Altitude (ft/m) Position (lat/lon) Dist (leg/tot) Name
O SKRG APT - 0 / 0 6.16453 / -75.42312 - / 0 nm JOSE MARIA CORDOVA
MATRO FIX - 4,200 / 1,280 5.14111 / -75.71056 63 / 63 nm
O SKPE APT - 0 / 0 4.81267 / -75.73952 19 / 83 nm MATECANA

Altitude Profile

Advertisement - Login to hide

SKRG

Details ICAO SKRG (MDE)
Name Jose Maria Cordova Intl
Region Colombia
Timezone America/Bogota (UTC-5.0)
Stats Elevation 7,027 ft / 2,142 m (AMSL)
Location 6.164900° -75.423100°
Runways 1
Magnetic Variation 7.118° W

METAR

SKRG 131500Z 02006KT 9999 SCT018 BKN200 19/15 Q1026 TEMPO FM1700 SCT018CB RMK A3030

Decode

TAF

TAF SKRG 131030Z 1312/1412 VRB02KT 4000 BCFG SCT008 BKN080 BECMG 1313/1315 12010KT 9999 NSW SCT020 PROB40 1320/1322 TSRA BKN015CB BECMG 1400/1402 VRB02KT BKN012 TEMPO 1402/1405 5000 DZRA BKN010CB TEMPO 1409/1412 4000 BCFG SCT006 BKN070 TX23/1319Z TN13/1411Z

Decode

Departure Runways

ID Width Length Bearing (true/mag) Surface Threshold Overrun Markings Lighting
01 151 ft / 46 m 11,297 ft / 3,443 m 359.63° / 6.75° ASPHALT 0 ft / 0 m 0 ft / 0 m PREC-APP CENTERLINE EDGE THRESHOLD ALSF-I REIL-OMNI
19 151 ft / 46 m 11,297 ft / 3,443 m 179.63° / 186.75° ASPHALT 0 ft / 0 m 112 ft / 34 m PREC-APP CENTERLINE EDGE THRESHOLD REIL-OMNI

SKPE

Details ICAO SKPE (PEI)
Name Matecana Intl
Region Colombia
Timezone America/Bogota (UTC-5.0)
Stats Elevation 4,416 ft / 1,346 m (AMSL)
Location 4.812560° -75.739900°
Runways 1
Magnetic Variation 6.716° W

METAR

SKPE 131500Z 33003KT 9999 FEW015 25/19 Q1017 RMK A3005

Decode

TAF

TAF TAF SKPE 131030Z 1312/1412 12006KT 9999 SCT017 SCT090 TEMPO 1312/1313 5000 BCFG -DZ SCT010 BECMG 1315/1317 33007KT TEMPO 1319/1322 6000 -RA SCT017TCU BECMG 1322/1324 11005KT TX28/1319Z TN18/1411Z

Decode

Destination Runways

ID Width Length Bearing (true/mag) Surface Threshold Overrun Markings Lighting
08 148 ft / 45 m 6,302 ft / 1,921 m 72.25° / 78.97° ASPHALT 0 ft / 0 m 0 ft / 0 m PREC-APP EDGE THRESHOLD REIL-OMNI
26 148 ft / 45 m 6,302 ft / 1,921 m 252.25° / 258.97° ASPHALT 0 ft / 0 m 0 ft / 0 m PREC-APP EDGE THRESHOLD REIL-OMNI

Popular Alternatives